Time;durP1;ratioP1;P1;durP2;ratioP2;P2;SDS_P1;SDS_P2;PMS_P1;PMS_P2;Temp;Humidity;BMP_temperature;BMP_pressure;BME280_temperature;BME280_humidity;BME280_pressure;Samples;Min_cycle;Max_cycle;Signal;HPM_P1;HPM_P2
2022/05/16 00:00:09;;;;;;;0.10;0.10;;;;;;;;;;5040222;28;20035;-81
2022/05/16 00:02:35;;;;;;;0.73;0.63;;;;;;;;;;5041904;28;20559;-82
2022/05/16 00:05:01;;;;;;;0.20;0.20;;;;;;;;;;5042716;28;20508;-81
2022/05/16 00:07:27;;;;;;;0.10;0.10;;;;;;;;;;5040476;28;20088;-82
2022/05/16 00:09:53;;;;;;;0.00;0.00;;;;;;;;;;5035835;28;20321;-79
2022/05/16 00:12:19;;;;;;;0.20;0.20;;;;;;;;;;5041582;28;20481;-80
2022/05/16 00:14:45;;;;;;;0.10;0.10;;;;;;;;;;5041331;28;20043;-80
2022/05/16 00:17:12;;;;;;;0.15;0.13;;;;;;;;;;5042873;28;20123;-81
2022/05/16 00:19:39;;;;;;;6.82;0.65;;;;;;;;;;5040502;28;20080;-81
2022/05/16 00:22:05;;;;;;;;;;;;;;;;;;5039975;28;20037;-82
2022/05/16 00:24:31;;;;;;;0.40;0.40;;;;;;;;;;5040345;28;19935;-81
2022/05/16 00:27:01;;;;;;;0.10;0.10;;;;;;;;;;5041542;28;20036;-80
2022/05/16 00:29:27;;;;;;;0.50;0.50;;;;;;;;;;5038296;28;20879;-81
2022/05/16 00:31:54;;;;;;;0.20;0.20;;;;;;;;;;5041218;28;20082;-79
2022/05/16 00:34:20;;;;;;;0.20;0.15;;;;;;;;;;5041853;28;20124;-80
2022/05/16 00:36:49;;;;;;;1.63;1.27;;;;;;;;;;5040124;28;20060;-81
2022/05/16 00:39:19;;;;;;;0.30;0.30;;;;;;;;;;5036126;28;20091;-88
2022/05/16 00:41:45;;;;;;;2.22;0.65;;;;;;;;;;5037587;28;20088;-87
2022/05/16 00:44:11;;;;;;;0.20;0.20;;;;;;;;;;5038712;28;20033;-88
2022/05/16 00:46:38;;;;;;;0.10;0.10;;;;;;;;;;5034559;28;20056;-88
2022/05/16 00:49:05;;;;;;;0.40;0.40;;;;;;;;;;5042869;28;20029;-88
2022/05/16 00:51:31;;;;;;;;;;;;;;;;;;5039202;28;20090;-87
2022/05/16 00:53:58;;;;;;;0.10;0.10;;;;;;;;;;5037375;28;19917;-87
2022/05/16 00:56:26;;;;;;;0.10;0.10;;;;;;;;;;5040013;28;20107;-88
2022/05/16 00:58:52;;;;;;;0.15;0.15;;;;;;;;;;5022629;28;20041;-86
2022/05/16 01:06:50;;;;;;;0.93;0.38;;;;;;;;;;5034131;28;20043;-87
2022/05/16 01:09:16;;;;;;;0.30;0.20;;;;;;;;;;5038737;28;20296;-88
2022/05/16 01:11:42;;;;;;;0.35;0.25;;;;;;;;;;5039702;28;20045;-88
2022/05/16 01:14:08;;;;;;;0.20;0.20;;;;;;;;;;5037249;28;20098;-87
2022/05/16 01:16:34;;;;;;;3.72;1.38;;;;;;;;;;5041295;28;20051;-87
2022/05/16 01:19:00;;;;;;;10.63;2.70;;;;;;;;;;5022153;28;20363;-88
2022/05/16 01:21:34;;;;;;;0.28;0.28;;;;;;;;;;5040306;28;20033;-82
2022/05/16 01:24:06;;;;;;;0.80;0.43;;;;;;;;;;5036247;28;20059;-83
2022/05/16 01:26:33;;;;;;;0.32;0.30;;;;;;;;;;5033759;28;20042;-83
2022/05/16 01:28:59;;;;;;;0.10;0.10;;;;;;;;;;5041159;28;20083;-83
2022/05/16 01:31:25;;;;;;;0.35;0.35;;;;;;;;;;5039360;28;20025;-82
2022/05/16 01:33:51;;;;;;;0.20;0.20;;;;;;;;;;5040466;28;20036;-82
2022/05/16 01:36:18;;;;;;;0.40;0.32;;;;;;;;;;5039457;28;20175;-83
2022/05/16 01:38:44;;;;;;;0.22;0.20;;;;;;;;;;5040580;28;20068;-80
2022/05/16 01:41:12;;;;;;;0.10;0.10;;;;;;;;;;5016797;28;20041;-79
2022/05/16 01:43:40;;;;;;;3.90;1.40;;;;;;;;;;5039080;28;20030;-80
2022/05/16 01:46:06;;;;;;;1.10;0.60;;;;;;;;;;5032177;28;20079;-80
2022/05/16 01:48:32;;;;;;;;;;;;;;;;;;5039446;28;20041;-80
2022/05/16 01:51:00;;;;;;;1.05;0.50;;;;;;;;;;5036479;28;20315;-80
2022/05/16 01:53:26;;;;;;;0.20;0.20;;;;;;;;;;5035989;28;20029;-81
2022/05/16 01:55:52;;;;;;;0.55;0.55;;;;;;;;;;5038021;28;20136;-82
2022/05/16 01:58:18;;;;;;;0.57;0.30;;;;;;;;;;5039176;28;20208;-81
2022/05/16 02:00:44;;;;;;;0.10;0.10;;;;;;;;;;5037921;28;20455;-80
2022/05/16 02:03:11;;;;;;;1.67;1.02;;;;;;;;;;5038763;28;21080;-88
2022/05/16 02:05:37;;;;;;;1.48;0.98;;;;;;;;;;5020655;28;20040;-87
2022/05/16 02:08:04;;;;;;;0.10;0.10;;;;;;;;;;5034951;28;20291;-86
2022/05/16 02:10:30;;;;;;;0.20;0.13;;;;;;;;;;5034809;28;20025;-86
2022/05/16 02:12:57;;;;;;;0.45;0.45;;;;;;;;;;5037042;28;20037;-87
2022/05/16 02:15:24;;;;;;;0.57;0.20;;;;;;;;;;5020750;28;20045;-84
2022/05/16 02:17:50;;;;;;;0.28;0.28;;;;;;;;;;5037564;28;20032;-86
2022/05/16 02:20:16;;;;;;;0.32;0.32;;;;;;;;;;5031760;28;20163;-86
2022/05/16 02:25:28;;;;;;;0.25;0.25;;;;;;;;;;5042994;28;20436;-86
2022/05/16 02:27:55;;;;;;;0.47;0.38;;;;;;;;;;5023098;28;20037;-86
2022/05/16 02:30:22;;;;;;;0.28;0.28;;;;;;;;;;5035936;28;20032;-84
2022/05/16 02:32:49;;;;;;;0.70;0.63;;;;;;;;;;5043632;28;20083;-86
2022/05/16 02:35:15;;;;;;;3.78;2.10;;;;;;;;;;5044656;28;20068;-86
2022/05/16 02:37:41;;;;;;;0.20;0.20;;;;;;;;;;5045720;28;20068;-82
2022/05/16 02:40:08;;;;;;;0.20;0.20;;;;;;;;;;5043325;28;20037;-80
2022/05/16 02:42:35;;;;;;;;;;;;;;;;;;5043668;28;20061;-81
2022/05/16 02:45:01;;;;;;;4.47;0.98;;;;;;;;;;5041622;28;19947;-84
2022/05/16 02:47:27;;;;;;;0.80;0.60;;;;;;;;;;5041843;28;20571;-81
2022/05/16 02:49:54;;;;;;;0.10;0.10;;;;;;;;;;5043589;28;20283;-80
2022/05/16 02:52:20;;;;;;;2.20;1.30;;;;;;;;;;5043298;28;20412;-81
2022/05/16 02:54:46;;;;;;;0.10;0.10;;;;;;;;;;5043458;28;20045;-82
2022/05/16 02:57:12;;;;;;;0.20;0.20;;;;;;;;;;5043594;28;20287;-80
2022/05/16 02:59:39;;;;;;;1.05;0.98;;;;;;;;;;5044258;28;20032;-79
2022/05/16 03:02:06;;;;;;;1.70;1.02;;;;;;;;;;5045124;28;20025;-79
2022/05/16 03:04:32;;;;;;;0.95;0.90;;;;;;;;;;5044297;28;20857;-80
2022/05/16 03:06:58;;;;;;;3.28;1.80;;;;;;;;;;5043756;28;20033;-78
2022/05/16 03:09:25;;;;;;;0.40;0.40;;;;;;;;;;5044001;28;20047;-80
2022/05/16 03:11:52;;;;;;;1.80;1.65;;;;;;;;;;5040775;28;20045;-80
2022/05/16 03:14:18;;;;;;;;;;;;;;;;;;5041252;28;20028;-81
2022/05/16 03:16:44;;;;;;;0.28;0.28;;;;;;;;;;5037993;28;19943;-78
2022/05/16 03:19:10;;;;;;;0.53;0.53;;;;;;;;;;5039353;28;20063;-78
2022/05/16 03:21:36;;;;;;;0.00;0.00;;;;;;;;;;5037664;28;20574;-77
2022/05/16 03:24:02;;;;;;;0.10;0.10;;;;;;;;;;5041554;28;20231;-77
2022/05/16 03:26:28;;;;;;;0.38;0.30;;;;;;;;;;5043480;28;20024;-77
2022/05/16 03:28:55;;;;;;;0.30;0.30;;;;;;;;;;5041870;28;20032;-78
2022/05/16 03:31:21;;;;;;;0.25;0.25;;;;;;;;;;5043223;28;20286;-77
2022/05/16 03:33:47;;;;;;;0.15;0.15;;;;;;;;;;5040769;28;20024;-78
2022/05/16 03:36:13;;;;;;;0.25;0.25;;;;;;;;;;5038394;28;20144;-77
2022/05/16 03:41:24;;;;;;;0.13;0.13;;;;;;;;;;5043185;28;20044;-78
2022/05/16 03:43:51;;;;;;;3.53;1.13;;;;;;;;;;5042401;28;20029;-78
2022/05/16 03:46:17;;;;;;;0.15;0.15;;;;;;;;;;5042318;28;20106;-78
2022/05/16 03:48:44;;;;;;;0.52;0.52;;;;;;;;;;5041557;28;20039;-77
2022/05/16 03:51:11;;;;;;;5.07;0.40;;;;;;;;;;5041684;28;20198;-77
2022/05/16 03:53:45;;;;;;;0.10;0.10;;;;;;;;;;5037822;28;20040;-77
2022/05/16 03:56:12;;;;;;;0.10;0.10;;;;;;;;;;5041699;28;20033;-76
2022/05/16 03:58:38;;;;;;;0.63;0.63;;;;;;;;;;5041662;28;20426;-76
2022/05/16 04:01:04;;;;;;;0.20;0.20;;;;;;;;;;5040349;28;20770;-79
2022/05/16 04:03:30;;;;;;;0.20;0.20;;;;;;;;;;5041828;28;20857;-78
2022/05/16 04:05:56;;;;;;;0.20;0.20;;;;;;;;;;5039852;28;20032;-77
2022/05/16 04:08:22;;;;;;;0.25;0.25;;;;;;;;;;5042184;28;20340;-78
2022/05/16 04:10:48;;;;;;;11.37;2.53;;;;;;;;;;5040955;28;20555;-78
2022/05/16 04:13:14;;;;;;;1.53;1.17;;;;;;;;;;5041795;28;20288;-79
2022/05/16 04:15:40;;;;;;;10.40;0.50;;;;;;;;;;5041957;28;20299;-79
2022/05/16 04:18:07;;;;;;;0.10;0.10;;;;;;;;;;5024134;28;20128;-79
2022/05/16 04:20:33;;;;;;;0.15;0.15;;;;;;;;;;5040126;28;20044;-79
2022/05/16 04:22:59;;;;;;;0.28;0.28;;;;;;;;;;5038982;28;20078;-80
2022/05/16 04:25:25;;;;;;;0.50;0.50;;;;;;;;;;5040420;28;20097;-80
2022/05/16 04:27:51;;;;;;;0.65;0.65;;;;;;;;;;5041271;28;20275;-80
2022/05/16 04:30:17;;;;;;;0.27;0.27;;;;;;;;;;5041840;28;20031;-80
2022/05/16 04:32:43;;;;;;;0.10;0.10;;;;;;;;;;5041231;28;20317;-78
2022/05/16 04:35:10;;;;;;;0.20;0.20;;;;;;;;;;5023488;28;20293;-79
2022/05/16 04:37:36;;;;;;;0.10;0.10;;;;;;;;;;5039480;28;20029;-78
2022/05/16 04:40:03;;;;;;;6.88;0.43;;;;;;;;;;5036654;28;20043;-76
2022/05/16 04:42:43;;;;;;;0.32;0.32;;;;;;;;;;5041401;28;20048;-76
2022/05/16 04:45:26;;;;;;;0.10;0.10;;;;;;;;;;5021317;28;20053;-76
2022/05/16 04:47:54;;;;;;;0.47;0.43;;;;;;;;;;5022316;28;20033;-76
2022/05/16 04:50:22;;;;;;;0.10;0.10;;;;;;;;;;5020503;28;20036;-76
2022/05/16 04:52:48;;;;;;;0.88;0.80;;;;;;;;;;5040722;28;20029;-76
2022/05/16 04:55:15;;;;;;;0.10;0.10;;;;;;;;;;5039854;28;20041;-76
2022/05/16 04:57:41;;;;;;;0.40;0.38;;;;;;;;;;5039946;28;20029;-77
2022/05/16 05:00:10;;;;;;;0.20;0.20;;;;;;;;;;5040116;28;20032;-77
2022/05/16 05:02:36;;;;;;;0.10;0.10;;;;;;;;;;5042242;28;20025;-76
2022/05/16 05:05:03;;;;;;;30.53;1.40;;;;;;;;;;5042568;28;20593;-76
2022/05/16 05:07:29;;;;;;;0.10;0.10;;;;;;;;;;5041031;28;20333;-76
2022/05/16 05:15:25;;;;;;;0.13;0.13;;;;;;;;;;5033105;28;20106;-82
2022/05/16 05:17:51;;;;;;;0.10;0.10;;;;;;;;;;5039933;28;20033;-81
2022/05/16 05:20:17;;;;;;;0.10;0.10;;;;;;;;;;5041157;28;20698;-81
2022/05/16 05:22:45;;;;;;;0.45;0.40;;;;;;;;;;5039041;28;20484;-81
2022/05/16 05:25:12;;;;;;;0.10;0.10;;;;;;;;;;5040051;28;20492;-81
2022/05/16 05:27:39;;;;;;;6.72;1.55;;;;;;;;;;5039387;28;20027;-82
2022/05/16 05:30:05;;;;;;;0.13;0.13;;;;;;;;;;5032636;28;20065;-82
2022/05/16 05:32:31;;;;;;;0.20;0.20;;;;;;;;;;5034973;28;20116;-85
2022/05/16 05:34:57;;;;;;;0.20;0.20;;;;;;;;;;5030730;28;20037;-80
2022/05/16 05:37:23;;;;;;;0.17;0.17;;;;;;;;;;5033793;28;20410;-82
2022/05/16 05:39:49;;;;;;;0.30;0.30;;;;;;;;;;5034657;28;20871;-84
2022/05/16 05:42:15;;;;;;;0.10;0.10;;;;;;;;;;5014829;28;20037;-86
2022/05/16 05:44:41;;;;;;;0.08;0.08;;;;;;;;;;5040048;28;20036;-83
2022/05/16 05:47:07;;;;;;;0.22;0.22;;;;;;;;;;5035172;28;20033;-83
2022/05/16 05:49:34;;;;;;;0.10;0.10;;;;;;;;;;5029319;28;20029;-87
2022/05/16 05:52:00;;;;;;;0.60;0.60;;;;;;;;;;5038486;28;20040;-86
2022/05/16 05:54:26;;;;;;;0.15;0.15;;;;;;;;;;5042068;28;20029;-83
2022/05/16 05:56:52;;;;;;;0.08;0.05;;;;;;;;;;5023458;28;20048;-86
2022/05/16 05:59:18;;;;;;;0.22;0.22;;;;;;;;;;5041506;28;20416;-89
2022/05/16 06:01:44;;;;;;;0.00;0.00;;;;;;;;;;5043141;28;20048;-89
2022/05/16 06:04:11;;;;;;;0.20;0.20;;;;;;;;;;5024937;28;20456;-89
2022/05/16 06:06:37;;;;;;;0.00;0.00;;;;;;;;;;5025925;28;20075;-90
2022/05/16 06:09:03;;;;;;;0.47;0.10;;;;;;;;;;5027534;28;20036;-90
2022/05/16 06:11:29;;;;;;;0.75;0.50;;;;;;;;;;5039521;28;20064;-87
2022/05/16 06:13:58;;;;;;;0.28;0.20;;;;;;;;;;5040827;28;20068;-87
2022/05/16 06:16:24;;;;;;;0.60;0.57;;;;;;;;;;5041085;28;20051;-86
2022/05/16 06:18:50;;;;;;;0.10;0.00;;;;;;;;;;5040567;28;20583;-85
2022/05/16 06:21:16;;;;;;;0.65;0.65;;;;;;;;;;5031857;28;20107;-86
2022/05/16 06:23:42;;;;;;;0.10;0.10;;;;;;;;;;5040833;28;20025;-85
2022/05/16 06:26:08;;;;;;;1.83;0.57;;;;;;;;;;5039680;28;20124;-84
2022/05/16 06:28:37;;;;;;;0.35;0.35;;;;;;;;;;5037478;28;20033;-84
2022/05/16 06:31:03;;;;;;;0.10;0.10;;;;;;;;;;5041408;28;20032;-84
2022/05/16 06:33:29;;;;;;;0.00;0.00;;;;;;;;;;5041326;28;20035;-85
2022/05/16 06:35:56;;;;;;;0.00;0.00;;;;;;;;;;5041342;28;20071;-83
2022/05/16 06:38:23;;;;;;;0.00;0.00;;;;;;;;;;5033946;28;20030;-85
2022/05/16 06:40:49;;;;;;;0.20;0.20;;;;;;;;;;5039013;28;20033;-84
2022/05/16 06:43:16;;;;;;;1.77;0.73;;;;;;;;;;5040049;28;20099;-82
2022/05/16 06:45:43;;;;;;;0.05;0.05;;;;;;;;;;5041309;28;20049;-84
2022/05/16 06:48:09;;;;;;;;;;;;;;;;;;5041803;28;20136;-82
2022/05/16 06:50:36;;;;;;;0.10;0.10;;;;;;;;;;5039492;28;20062;-82
2022/05/16 06:53:03;;;;;;;0.32;0.17;;;;;;;;;;5039574;28;20032;-83
2022/05/16 06:55:29;;;;;;;0.00;0.00;;;;;;;;;;5038193;28;20184;-78
2022/05/16 06:57:55;;;;;;;0.57;0.38;;;;;;;;;;5039436;28;20536;-78
2022/05/16 07:00:21;;;;;;;9.13;0.45;;;;;;;;;;5038834;28;20026;-78
2022/05/16 07:02:48;;;;;;;0.10;0.10;;;;;;;;;;5041805;28;20032;-78
2022/05/16 07:05:14;;;;;;;11.40;2.40;;;;;;;;;;5040162;28;20052;-78
2022/05/16 07:07:40;;;;;;;;;;;;;;;;;;5041845;28;20044;-78
2022/05/16 07:10:06;;;;;;;0.17;0.10;;;;;;;;;;5043441;28;19974;-78
2022/05/16 07:12:33;;;;;;;0.45;0.28;;;;;;;;;;5044967;28;20037;-78
2022/05/16 07:14:59;;;;;;;;;;;;;;;;;;5045444;28;20048;-78
2022/05/16 07:17:25;;;;;;;0.20;0.13;;;;;;;;;;5045982;28;19986;-78
2022/05/16 07:19:51;;;;;;;0.30;0.30;;;;;;;;;;5041102;28;20029;-78
2022/05/16 07:22:25;;;;;;;0.43;0.43;;;;;;;;;;5039745;28;20276;-78
2022/05/16 07:24:52;;;;;;;3.78;0.88;;;;;;;;;;5044913;28;20706;-78
2022/05/16 07:30:03;;;;;;;;;;;;;;;;;;5030020;28;20039;-78
2022/05/16 07:32:34;;;;;;;0.22;0.22;;;;;;;;;;5041332;28;20003;-79
2022/05/16 07:35:05;;;;;;;0.00;0.00;;;;;;;;;;5045132;28;20139;-78
2022/05/16 07:37:31;;;;;;;0.80;0.32;;;;;;;;;;5044640;28;20033;-78
2022/05/16 07:39:58;;;;;;;0.30;0.30;;;;;;;;;;5045294;28;20428;-81
2022/05/16 07:42:24;;;;;;;3.30;1.33;;;;;;;;;;5045324;28;20044;-80
2022/05/16 07:44:50;;;;;;;0.00;0.00;;;;;;;;;;5044725;28;20036;-80
2022/05/16 07:47:17;;;;;;;0.30;0.30;;;;;;;;;;5045505;28;20412;-80
2022/05/16 07:49:43;;;;;;;0.10;0.10;;;;;;;;;;5044329;28;20059;-80
2022/05/16 07:52:10;;;;;;;0.38;0.22;;;;;;;;;;5045242;28;20021;-80
2022/05/16 07:54:37;;;;;;;0.20;0.20;;;;;;;;;;5044572;28;20032;-80
2022/05/16 07:57:04;;;;;;;0.20;0.20;;;;;;;;;;5044678;28;20041;-80
2022/05/16 07:59:30;;;;;;;3.10;0.73;;;;;;;;;;5007511;28;20052;-80
2022/05/16 08:01:56;;;;;;;0.25;0.25;;;;;;;;;;5044179;28;20029;-80
2022/05/16 08:04:22;;;;;;;0.30;0.30;;;;;;;;;;5043863;28;20036;-81
2022/05/16 08:06:48;;;;;;;1.20;0.40;;;;;;;;;;5026201;28;20120;-80
2022/05/16 08:11:59;;;;;;;;;;;;;;;;;;5044667;28;20494;-80
2022/05/16 08:14:25;;;;;;;0.43;0.43;;;;;;;;;;5044610;28;19908;-81
2022/05/16 08:16:51;;;;;;;0.30;0.20;;;;;;;;;;5043876;28;20043;-81
2022/05/16 08:19:17;;;;;;;0.10;0.10;;;;;;;;;;5043363;28;20328;-81
2022/05/16 08:21:44;;;;;;;1.65;1.05;;;;;;;;;;5032787;28;20036;-81
2022/05/16 08:24:11;;;;;;;0.75;0.50;;;;;;;;;;5043974;28;20036;-80
2022/05/16 08:26:37;;;;;;;0.20;0.20;;;;;;;;;;5044199;28;20075;-80
2022/05/16 08:29:04;;;;;;;0.45;0.15;;;;;;;;;;5044360;28;20089;-80
2022/05/16 08:31:30;;;;;;;0.80;0.75;;;;;;;;;;5025754;28;20029;-81
2022/05/16 08:33:57;;;;;;;0.40;0.40;;;;;;;;;;5043306;28;20086;-81
2022/05/16 08:41:56;;;;;;;0.15;0.15;;;;;;;;;;5044384;28;20106;-78
2022/05/16 08:44:35;;;;;;;0.40;0.40;;;;;;;;;;5044955;28;20037;-78
2022/05/16 08:47:01;;;;;;;1.48;0.63;;;;;;;;;;5044757;28;20041;-78
2022/05/16 08:49:31;;;;;;;0.22;0.22;;;;;;;;;;5043808;28;20035;-78
2022/05/16 08:52:05;;;;;;;0.70;0.52;;;;;;;;;;5043967;28;20139;-78
2022/05/16 08:54:42;;;;;;;0.82;0.68;;;;;;;;;;5043465;28;20535;-78
2022/05/16 08:57:10;;;;;;;1.58;0.73;;;;;;;;;;5029107;28;20266;-78
2022/05/16 08:59:39;;;;;;;0.43;0.35;;;;;;;;;;5044208;28;20028;-78
2022/05/16 09:02:11;;;;;;;0.28;0.28;;;;;;;;;;5044337;28;20767;-78
2022/05/16 09:04:48;;;;;;;0.50;0.35;;;;;;;;;;5043907;28;20116;-78
2022/05/16 09:07:22;;;;;;;0.50;0.30;;;;;;;;;;5043383;28;20032;-78
2022/05/16 09:09:48;;;;;;;14.23;0.93;;;;;;;;;;5043430;28;20117;-78
2022/05/16 09:12:19;;;;;;;0.98;0.57;;;;;;;;;;5043663;28;20033;-78
2022/05/16 09:14:48;;;;;;;0.65;0.43;;;;;;;;;;5043768;28;20032;-78
2022/05/16 09:17:37;;;;;;;0.10;0.10;;;;;;;;;;5041731;28;20042;-78
2022/05/16 09:20:10;;;;;;;0.30;0.30;;;;;;;;;;5027852;28;20060;-78
2022/05/16 09:22:44;;;;;;;2.00;1.40;;;;;;;;;;5040040;28;20032;-78
2022/05/16 09:25:13;;;;;;;0.05;0.00;;;;;;;;;;5043298;28;20159;-78
2022/05/16 09:30:26;;;;;;;0.10;0.10;;;;;;;;;;5043494;28;20036;-78
2022/05/16 09:32:59;;;;;;;0.10;0.10;;;;;;;;;;5042957;28;20108;-78
2022/05/16 09:35:29;;;;;;;0.10;0.10;;;;;;;;;;5043861;28;20045;-77
2022/05/16 09:37:57;;;;;;;0.03;0.03;;;;;;;;;;5024645;28;20029;-81
2022/05/16 09:40:46;;;;;;;0.10;0.10;;;;;;;;;;5042316;28;20036;-80
2022/05/16 09:43:20;;;;;;;0.20;0.20;;;;;;;;;;5042352;28;20025;-81
2022/05/16 09:45:49;;;;;;;0.55;0.30;;;;;;;;;;5041570;28;20230;-80
2022/05/16 09:48:20;;;;;;;0.77;0.50;;;;;;;;;;5042468;28;20518;-81
2022/05/16 09:50:59;;;;;;;0.55;0.30;;;;;;;;;;5042009;28;20052;-81
2022/05/16 09:53:52;;;;;;;0.80;0.52;;;;;;;;;;5041915;28;20052;-81
2022/05/16 09:56:21;;;;;;;1.65;0.68;;;;;;;;;;5037790;28;20103;-81
2022/05/16 09:58:47;;;;;;;0.10;0.10;;;;;;;;;;5042200;28;20033;-81
2022/05/16 10:01:14;;;;;;;0.30;0.30;;;;;;;;;;5041967;28;20082;-81
2022/05/16 10:03:43;;;;;;;0.10;0.10;;;;;;;;;;5023845;28;20120;-80
2022/05/16 10:06:10;;;;;;;0.00;0.00;;;;;;;;;;5042011;28;20033;-80
2022/05/16 10:08:39;;;;;;;0.52;0.20;;;;;;;;;;5041872;28;20040;-81
2022/05/16 10:11:26;;;;;;;0.25;0.25;;;;;;;;;;5042411;28;20116;-81
2022/05/16 10:13:52;;;;;;;0.35;0.20;;;;;;;;;;5041758;28;20315;-81
2022/05/16 10:16:19;;;;;;;0.75;0.55;;;;;;;;;;5041455;28;20606;-80
2022/05/16 10:18:47;;;;;;;0.63;0.38;;;;;;;;;;5042014;28;20492;-80
2022/05/16 10:21:20;;;;;;;0.77;0.20;;;;;;;;;;5011333;28;20059;-81
2022/05/16 10:23:46;;;;;;;0.30;0.30;;;;;;;;;;5041752;28;20098;-80
2022/05/16 10:26:17;;;;;;;0.03;0.03;;;;;;;;;;5042190;28;20586;-80
2022/05/16 10:28:51;;;;;;;0.10;0.10;;;;;;;;;;5041916;28;20033;-80
2022/05/16 10:34:23;;;;;;;0.10;0.03;;;;;;;;;;4998969;28;20563;-81
2022/05/16 10:36:52;;;;;;;0.32;0.17;;;;;;;;;;4999476;28;20045;-80
2022/05/16 10:39:21;;;;;;;2.28;0.43;;;;;;;;;;4999813;28;20030;-77
2022/05/16 10:42:13;;;;;;;0.57;0.32;;;;;;;;;;4999180;28;20034;-77
2022/05/16 10:44:47;;;;;;;0.08;0.08;;;;;;;;;;4995660;28;20092;-78
2022/05/16 10:47:16;;;;;;;0.57;0.57;;;;;;;;;;5003589;28;20053;-77
2022/05/16 10:49:47;;;;;;;0.00;0.00;;;;;;;;;;5002588;28;20069;-78
2022/05/16 10:52:22;;;;;;;0.55;0.40;;;;;;;;;;4986489;28;20517;-78
2022/05/16 10:54:48;;;;;;;0.08;0.00;;;;;;;;;;5003031;28;20127;-78
2022/05/16 10:57:20;;;;;;;0.43;0.40;;;;;;;;;;5002838;28;20053;-77
2022/05/16 10:59:52;;;;;;;0.40;0.40;;;;;;;;;;5002496;28;20049;-77
2022/05/16 11:02:27;;;;;;;0.32;0.32;;;;;;;;;;5002443;28;20091;-77
2022/05/16 11:04:56;;;;;;;0.17;0.15;;;;;;;;;;4986694;28;20081;-78
2022/05/16 11:07:31;;;;;;;0.10;0.10;;;;;;;;;;5002773;28;20057;-77
2022/05/16 11:10:15;;;;;;;0.50;0.17;;;;;;;;;;5014396;28;20045;-77
2022/05/16 11:12:45;;;;;;;0.80;0.55;;;;;;;;;;5025802;28;20036;-77
2022/05/16 11:15:31;;;;;;;0.20;0.20;;;;;;;;;;5025514;28;20088;-77
2022/05/16 11:18:12;;;;;;;0.40;0.40;;;;;;;;;;5026189;28;20408;-77
2022/05/16 11:20:43;;;;;;;0.73;0.50;;;;;;;;;;5022964;28;20119;-77
2022/05/16 11:23:22;;;;;;;3.20;1.00;;;;;;;;;;5025742;28;20029;-78
2022/05/16 11:25:53;;;;;;;1.50;0.50;;;;;;;;;;5025831;28;20033;-77
2022/05/16 11:28:38;;;;;;;1.60;1.00;;;;;;;;;;5025622;28;20028;-77
2022/05/16 11:31:07;;;;;;;0.20;0.20;;;;;;;;;;5023948;28;20030;-77
2022/05/16 11:33:33;;;;;;;6.22;1.05;;;;;;;;;;5025464;28;20065;-77
2022/05/16 11:36:02;;;;;;;0.17;0.17;;;;;;;;;;5025701;28;20116;-77
2022/05/16 11:39:03;;;;;;;0.40;0.15;;;;;;;;;;5026075;28;20037;-80
2022/05/16 11:41:59;;;;;;;0.20;0.20;;;;;;;;;;4983662;28;20121;-80
2022/05/16 11:44:28;;;;;;;2.78;0.10;;;;;;;;;;4945502;28;20365;-80
2022/05/16 11:46:54;;;;;;;0.60;0.40;;;;;;;;;;4941703;28;20553;-80
2022/05/16 11:49:46;;;;;;;0.10;0.10;;;;;;;;;;4941505;28;20114;-80
2022/05/16 11:52:31;;;;;;;4.20;1.30;;;;;;;;;;4903820;29;20087;-80
2022/05/16 11:54:59;;;;;;;0.40;0.40;;;;;;;;;;4905603;29;20084;-80
2022/05/16 12:02:58;;;;;;;0.30;0.13;;;;;;;;;;4904607;29;19926;-80
2022/05/16 12:05:26;;;;;;;0.00;0.00;;;;;;;;;;4905853;29;20059;-80
2022/05/16 12:08:01;;;;;;;0.10;0.10;;;;;;;;;;4903677;29;20054;-80
2022/05/16 12:10:28;;;;;;;0.07;0.07;;;;;;;;;;4903426;29;20055;-80
2022/05/16 12:13:13;;;;;;;0.13;0.13;;;;;;;;;;4904468;29;20480;-80
2022/05/16 12:15:39;;;;;;;0.00;0.00;;;;;;;;;;4924116;29;20146;-80
2022/05/16 12:18:07;;;;;;;2.08;0.77;;;;;;;;;;4925773;29;20491;-80
2022/05/16 12:20:37;;;;;;;0.10;0.10;;;;;;;;;;4947648;28;20391;-80
2022/05/16 12:23:04;;;;;;;0.20;0.10;;;;;;;;;;4962979;28;20559;-80
2022/05/16 12:25:32;;;;;;;0.95;0.38;;;;;;;;;;4962914;28;20041;-80
2022/05/16 12:28:13;;;;;;;0.10;0.10;;;;;;;;;;4949671;28;20046;-80
2022/05/16 12:30:56;;;;;;;0.00;0.00;;;;;;;;;;5024040;28;20039;-80
2022/05/16 12:33:37;;;;;;;0.00;0.00;;;;;;;;;;5024583;28;20517;-80
2022/05/16 12:36:03;;;;;;;0.17;0.17;;;;;;;;;;5008869;28;20037;-80
2022/05/16 12:38:30;;;;;;;1.23;1.02;;;;;;;;;;5024857;28;20560;-80
2022/05/16 12:41:38;;;;;;;0.20;0.20;;;;;;;;;;5023631;28;20061;-79
2022/05/16 12:44:01;;;;;;;0.73;0.60;;;;;;;;;;5023665;28;20505;-80
2022/05/16 12:46:39;;;;;;;0.43;0.32;;;;;;;;;;5040040;28;20056;-80
2022/05/16 12:49:08;;;;;;;0.25;0.20;;;;;;;;;;5043822;28;20111;-80
2022/05/16 12:51:37;;;;;;;0.17;0.17;;;;;;;;;;5043538;28;20506;-80
2022/05/16 12:54:04;;;;;;;0.13;0.10;;;;;;;;;;5043455;28;20495;-80
2022/05/16 12:56:42;;;;;;;1.02;0.15;;;;;;;;;;5043765;28;20041;-80
2022/05/16 12:59:11;;;;;;;1.25;0.65;;;;;;;;;;5042907;28;20033;-80
2022/05/16 13:02:06;;;;;;;0.30;0.30;;;;;;;;;;5042942;28;20094;-80
2022/05/16 13:04:47;;;;;;;0.52;0.32;;;;;;;;;;4953976;28;20043;-80
2022/05/16 13:07:31;;;;;;;0.98;0.35;;;;;;;;;;4955857;28;20051;-80
2022/05/16 13:09:57;;;;;;;2.10;1.13;;;;;;;;;;4962318;28;20540;-80
2022/05/16 13:12:42;;;;;;;0.20;0.15;;;;;;;;;;4962523;28;20039;-79
2022/05/16 13:15:11;;;;;;;1.00;0.98;;;;;;;;;;4962167;28;20038;-80
2022/05/16 13:17:37;;;;;;;0.00;0.00;;;;;;;;;;4958335;28;20061;-80
2022/05/16 13:20:09;;;;;;;4.72;1.20;;;;;;;;;;4962114;28;20031;-80
2022/05/16 13:22:35;;;;;;;0.55;0.55;;;;;;;;;;4962053;28;20039;-80
2022/05/16 13:25:01;;;;;;;0.28;0.20;;;;;;;;;;4960686;28;20520;-80
2022/05/16 13:30:18;;;;;;;1.15;0.47;;;;;;;;;;4962862;28;20255;-80
2022/05/16 13:32:44;;;;;;;0.15;0.15;;;;;;;;;;4962137;28;20027;-80
2022/05/16 13:35:11;;;;;;;3.78;0.40;;;;;;;;;;4962465;28;20059;-79
2022/05/16 13:37:40;;;;;;;0.57;0.43;;;;;;;;;;4962485;28;20058;-80
2022/05/16 13:40:08;;;;;;;0.45;0.20;;;;;;;;;;4973765;28;21326;-77
2022/05/16 13:42:35;;;;;;;0.38;0.38;;;;;;;;;;5042785;28;20098;-77
2022/05/16 13:45:01;;;;;;;0.50;0.50;;;;;;;;;;5042701;28;20045;-77
2022/05/16 13:47:29;;;;;;;0.30;0.30;;;;;;;;;;5043455;28;20432;-77
2022/05/16 13:49:55;;;;;;;1.55;0.20;;;;;;;;;;5042713;28;20040;-77
2022/05/16 13:52:24;;;;;;;0.00;0.00;;;;;;;;;;5042427;28;20035;-77
2022/05/16 13:54:51;;;;;;;1.02;0.90;;;;;;;;;;5042243;28;20085;-77
2022/05/16 13:57:22;;;;;;;0.47;0.25;;;;;;;;;;5022580;28;20026;-77
2022/05/16 13:59:50;;;;;;;0.20;0.20;;;;;;;;;;5042533;28;20476;-77
2022/05/16 14:02:23;;;;;;;2.75;0.30;;;;;;;;;;5040980;28;20032;-77
2022/05/16 14:04:51;;;;;;;0.10;0.10;;;;;;;;;;5042130;28;20496;-77
2022/05/16 14:07:17;;;;;;;0.30;0.15;;;;;;;;;;5041979;28;20032;-77
2022/05/16 14:09:44;;;;;;;0.60;0.60;;;;;;;;;;5042333;28;20043;-77
2022/05/16 14:12:13;;;;;;;10.75;1.48;;;;;;;;;;5042734;28;20020;-77
2022/05/16 14:14:41;;;;;;;0.47;0.47;;;;;;;;;;5041911;28;20075;-77
2022/05/16 14:17:08;;;;;;;0.32;0.32;;;;;;;;;;5042426;28;20041;-76
2022/05/16 14:19:37;;;;;;;0.25;0.25;;;;;;;;;;5039447;28;20063;-77
2022/05/16 14:22:27;;;;;;;0.10;0.10;;;;;;;;;;5034343;28;20061;-77
2022/05/16 14:25:00;;;;;;;4.75;0.47;;;;;;;;;;5042166;28;20067;-77
2022/05/16 14:27:40;;;;;;;0.30;0.30;;;;;;;;;;5042150;28;20530;-77
2022/05/16 14:30:11;;;;;;;2.90;0.15;;;;;;;;;;5026034;28;20039;-77
2022/05/16 14:32:42;;;;;;;0.25;0.22;;;;;;;;;;5038769;28;20071;-77
2022/05/16 14:35:14;;;;;;;0.08;0.00;;;;;;;;;;5042106;28;20037;-77
2022/05/16 14:37:40;;;;;;;0.68;0.43;;;;;;;;;;5023822;28;20686;-77
2022/05/16 14:40:10;;;;;;;1.83;0.55;;;;;;;;;;5042044;28;20128;-77
2022/05/16 14:42:40;;;;;;;0.63;0.32;;;;;;;;;;5042146;28;20119;-77
2022/05/16 14:45:16;;;;;;;0.20;0.20;;;;;;;;;;5024860;28;20055;-77
2022/05/16 14:47:43;;;;;;;0.47;0.27;;;;;;;;;;5042105;28;20033;-77
2022/05/16 14:50:20;;;;;;;0.10;0.10;;;;;;;;;;5041521;28;20299;-77
2022/05/16 14:53:06;;;;;;;0.00;0.00;;;;;;;;;;5038052;28;20064;-81
2022/05/16 14:55:34;;;;;;;0.40;0.15;;;;;;;;;;5004218;28;20080;-79
2022/05/16 14:58:01;;;;;;;0.20;0.20;;;;;;;;;;5036299;28;20024;-80
2022/05/16 15:05:58;;;;;;;0.10;0.10;;;;;;;;;;5040615;28;20047;-79
2022/05/16 15:08:26;;;;;;;0.00;0.00;;;;;;;;;;5040574;28;20025;-78
2022/05/16 15:10:52;;;;;;;1.35;0.80;;;;;;;;;;5041193;28;20041;-79
2022/05/16 15:13:19;;;;;;;0.15;0.15;;;;;;;;;;5040088;28;20107;-78
2022/05/16 15:15:45;;;;;;;0.30;0.30;;;;;;;;;;5040753;28;20041;-77
2022/05/16 15:18:12;;;;;;;1.17;0.82;;;;;;;;;;5037137;28;20178;-78
2022/05/16 15:20:42;;;;;;;1.70;0.47;;;;;;;;;;5031519;28;20026;-78
2022/05/16 15:23:08;;;;;;;1.23;0.60;;;;;;;;;;5033021;28;20075;-78
2022/05/16 15:25:35;;;;;;;0.10;0.10;;;;;;;;;;5018095;28;20421;-78
2022/05/16 15:28:01;;;;;;;0.45;0.45;;;;;;;;;;5032479;28;20450;-78
2022/05/16 15:30:28;;;;;;;0.55;0.10;;;;;;;;;;5040097;28;20029;-78
2022/05/16 15:32:54;;;;;;;0.10;0.00;;;;;;;;;;5030089;28;20069;-78
2022/05/16 15:35:20;;;;;;;3.42;1.58;;;;;;;;;;5031348;28;20112;-78
2022/05/16 15:37:47;;;;;;;0.43;0.43;;;;;;;;;;5025615;28;20040;-78
2022/05/16 15:40:13;;;;;;;1.35;0.68;;;;;;;;;;5027034;28;20025;-82
2022/05/16 15:42:39;;;;;;;0.05;0.05;;;;;;;;;;5045466;28;20025;-82